createdAt,value
2023-04-30T00:01:26.634Z,23.95
2023-04-30T00:03:53.480Z,22.90
2023-04-30T00:06:20.417Z,22.45
2023-04-30T00:08:47.199Z,24.42
2023-04-30T00:11:13.963Z,19.70
2023-04-30T00:13:42.867Z,25.77
2023-04-30T00:16:10.096Z,20.88
2023-04-30T00:18:37.383Z,22.65
2023-04-30T00:21:04.327Z,21.75
2023-04-30T00:23:31.092Z,21.42
2023-04-30T00:25:57.793Z,22.05
2023-04-30T00:28:24.504Z,28.30
2023-04-30T00:30:51.286Z,26.48
2023-04-30T00:33:18.724Z,23.55
2023-04-30T00:35:45.439Z,22.23
2023-04-30T00:38:12.167Z,23.27
2023-04-30T00:40:41.711Z,25.23
2023-04-30T00:43:08.447Z,25.55
2023-04-30T00:45:35.218Z,24.33
2023-04-30T00:48:02.330Z,27.10
2023-04-30T00:50:29.660Z,26.58
2023-04-30T00:52:56.422Z,25.98
2023-04-30T00:55:23.240Z,28.65
2023-04-30T00:57:51.255Z,25.50
2023-04-30T01:00:18.390Z,24.10
2023-04-30T01:02:45.411Z,24.98
2023-04-30T01:05:12.288Z,26.38
2023-04-30T01:07:44.945Z,25.85
2023-04-30T01:10:16.335Z,27.98
2023-04-30T01:13:01.155Z,23.55
2023-04-30T01:15:33.870Z,26.85
2023-04-30T01:18:20.659Z,27.55
2023-04-30T01:20:57.714Z,28.05
2023-04-30T01:23:42.916Z,28.27
2023-04-30T01:26:19.740Z,28.40
2023-04-30T01:28:49.043Z,30.30
2023-04-30T01:31:18.488Z,26.80
2023-04-30T01:33:45.282Z,31.75
2023-04-30T01:36:36.101Z,27.42
2023-04-30T01:39:33.695Z,24.70
2023-04-30T01:42:41.740Z,26.52
2023-04-30T01:45:16.912Z,26.83
2023-04-30T01:48:03.730Z,29.38
2023-04-30T01:51:01.552Z,29.08
2023-04-30T01:53:35.436Z,32.10
2023-04-30T01:56:08.419Z,29.60
2023-04-30T01:58:36.079Z,28.23
2023-04-30T02:01:03.238Z,28.73
2023-04-30T02:03:30.183Z,27.52
2023-04-30T02:05:57.131Z,26.10
2023-04-30T02:08:23.897Z,29.70
2023-04-30T02:10:50.762Z,36.15
2023-04-30T02:13:17.555Z,28.95
2023-04-30T02:15:44.372Z,28.98
2023-04-30T02:18:11.157Z,34.00
2023-04-30T02:20:37.888Z,29.95
2023-04-30T02:23:04.676Z,30.92
2023-04-30T02:25:33.014Z,27.42
2023-04-30T02:27:59.759Z,30.17
2023-04-30T02:30:26.458Z,34.00
2023-04-30T02:32:53.261Z,30.38
2023-04-30T02:35:20.077Z,30.75
2023-04-30T02:37:46.912Z,32.08
2023-04-30T02:40:13.844Z,29.80
2023-04-30T02:42:40.631Z,30.92
2023-04-30T02:45:07.857Z,33.92
2023-04-30T02:47:34.598Z,36.38
2023-04-30T02:50:01.353Z,33.85
2023-04-30T02:52:28.123Z,35.50
2023-04-30T02:54:54.866Z,35.55
2023-04-30T02:57:21.600Z,34.47
2023-04-30T02:59:48.405Z,34.25
2023-04-30T03:02:15.193Z,37.20
2023-04-30T03:04:41.981Z,33.70
2023-04-30T03:07:08.890Z,36.58
2023-04-30T03:09:37.084Z,34.83
2023-04-30T03:12:04.048Z,35.30
2023-04-30T03:14:30.882Z,34.63
2023-04-30T03:16:57.611Z,35.28
2023-04-30T03:19:25.391Z,33.80
2023-04-30T03:21:52.612Z,33.00
2023-04-30T03:24:19.481Z,39.55
2023-04-30T03:26:46.957Z,34.65
2023-04-30T03:29:13.810Z,37.38
2023-04-30T03:31:40.663Z,34.13
2023-04-30T03:34:07.614Z,36.88
2023-04-30T03:36:34.900Z,37.05
2023-04-30T03:39:02.357Z,35.92
2023-04-30T03:41:29.066Z,35.42
2023-04-30T03:43:55.891Z,37.80
2023-04-30T03:46:22.895Z,38.75
2023-04-30T03:48:49.742Z,33.97
2023-04-30T03:51:16.780Z,32.67
2023-04-30T03:53:43.548Z,38.72
2023-04-30T03:56:11.180Z,36.25
2023-04-30T03:58:38.024Z,33.83
2023-04-30T04:01:05.083Z,40.08
2023-04-30T04:03:34.104Z,32.97
2023-04-30T04:06:00.934Z,35.72
2023-04-30T04:08:27.678Z,33.30
2023-04-30T04:10:54.619Z,35.78
2023-04-30T04:13:21.406Z,35.63
2023-04-30T04:15:48.160Z,36.22
2023-04-30T04:18:14.895Z,34.78
2023-04-30T04:20:41.661Z,33.97
2023-04-30T04:23:08.410Z,34.33
2023-04-30T04:25:35.255Z,41.10
2023-04-30T04:28:02.133Z,33.75
2023-04-30T04:30:28.829Z,39.03
2023-04-30T04:32:55.545Z,37.95
2023-04-30T04:35:22.388Z,39.80
2023-04-30T04:37:49.264Z,38.40
2023-04-30T04:40:16.130Z,38.25
2023-04-30T04:42:42.801Z,37.65
2023-04-30T04:45:10.166Z,36.70
2023-04-30T04:47:37.816Z,39.35
2023-04-30T04:50:04.898Z,36.85
2023-04-30T04:52:31.724Z,37.33
2023-04-30T04:54:58.459Z,33.35
2023-04-30T04:57:25.750Z,35.60
2023-04-30T04:59:53.204Z,32.28
2023-04-30T05:02:20.181Z,30.58
2023-04-30T05:04:47.276Z,35.47
2023-04-30T05:07:14.124Z,27.63
2023-04-30T05:09:40.958Z,34.30
2023-04-30T05:12:07.674Z,28.45
2023-04-30T05:14:34.365Z,29.55
2023-04-30T05:17:01.117Z,24.92
2023-04-30T05:19:27.886Z,26.38
2023-04-30T05:21:54.734Z,25.88
2023-04-30T05:24:21.514Z,23.80
2023-04-30T05:26:48.296Z,23.15
2023-04-30T05:29:15.011Z,25.63
2023-04-30T05:31:41.982Z,26.10
2023-04-30T05:34:08.837Z,21.95
2023-04-30T05:36:35.579Z,23.45
2023-04-30T05:39:02.354Z,22.25
2023-04-30T05:41:29.085Z,18.83
2023-04-30T05:43:55.758Z,22.35
2023-04-30T05:46:22.511Z,18.75
2023-04-30T05:48:49.385Z,22.13
2023-04-30T05:51:16.086Z,20.65
2023-04-30T05:53:43.275Z,20.92
2023-04-30T05:56:10.010Z,19.92
2023-04-30T05:58:36.750Z,22.50
2023-04-30T06:01:03.846Z,17.85
2023-04-30T06:03:30.765Z,18.42
2023-04-30T06:05:57.542Z,20.20
2023-04-30T06:08:24.303Z,18.40
2023-04-30T06:10:51.246Z,19.27
2023-04-30T06:13:18.299Z,20.17
2023-04-30T06:15:46.060Z,15.98
2023-04-30T06:18:14.333Z,18.08
2023-04-30T06:20:41.170Z,15.63
2023-04-30T06:23:08.929Z,18.65
2023-04-30T06:25:35.943Z,15.02
2023-04-30T06:28:02.651Z,16.92
2023-04-30T06:30:31.459Z,15.05
2023-04-30T06:32:58.295Z,14.98
2023-04-30T06:35:25.173Z,15.85
2023-04-30T06:37:51.924Z,16.65
2023-04-30T06:40:18.862Z,16.92
2023-04-30T06:42:47.492Z,15.45
2023-04-30T06:45:15.379Z,16.45
2023-04-30T06:47:42.896Z,14.55
2023-04-30T06:50:10.038Z,13.75
2023-04-30T06:52:36.776Z,15.45
2023-04-30T06:55:03.678Z,15.35
2023-04-30T06:57:31.230Z,12.60
2023-04-30T06:59:58.382Z,14.70
2023-04-30T07:02:25.194Z,13.77
2023-04-30T07:04:52.590Z,15.93
2023-04-30T07:07:19.348Z,14.63
2023-04-30T07:09:46.085Z,16.50
2023-04-30T07:12:13.969Z,13.38
2023-04-30T07:14:40.798Z,13.18
2023-04-30T07:17:07.517Z,13.68
2023-04-30T07:19:34.433Z,14.05
2023-04-30T07:22:01.394Z,15.27
2023-04-30T07:24:28.290Z,15.65
2023-04-30T07:26:55.122Z,14.30
2023-04-30T07:29:22.374Z,12.13
2023-04-30T07:31:49.383Z,14.73
2023-04-30T07:34:16.264Z,13.90
2023-04-30T07:36:43.063Z,14.80
2023-04-30T07:39:11.764Z,17.05
2023-04-30T07:41:38.573Z,14.35
2023-04-30T07:44:05.619Z,13.15
2023-04-30T07:46:32.746Z,12.55
2023-04-30T07:48:59.517Z,15.40
2023-04-30T07:51:27.023Z,14.40
2023-04-30T07:53:53.770Z,13.95
2023-04-30T07:56:21.511Z,15.07
2023-04-30T07:58:48.295Z,11.43
2023-04-30T08:01:15.898Z,13.93
2023-04-30T08:03:42.679Z,17.90
2023-04-30T08:06:09.577Z,13.43
2023-04-30T08:08:36.447Z,12.43
2023-04-30T08:11:03.224Z,12.73
2023-04-30T08:13:30.823Z,13.65
2023-04-30T08:15:57.620Z,13.18
2023-04-30T08:18:24.362Z,11.25
2023-04-30T08:20:51.076Z,12.00
2023-04-30T08:23:17.939Z,11.95
2023-04-30T08:25:44.628Z,10.30
2023-04-30T08:28:11.373Z,12.32
2023-04-30T08:30:38.786Z,9.65
2023-04-30T08:33:05.783Z,10.35
2023-04-30T08:35:32.585Z,9.07
2023-04-30T08:37:59.387Z,10.52
2023-04-30T08:40:43.719Z,10.32
2023-04-30T08:43:15.510Z,11.68
2023-04-30T08:45:42.629Z,9.32
2023-04-30T08:48:11.590Z,8.02
2023-04-30T08:50:38.927Z,10.52
2023-04-30T08:53:07.825Z,10.68
2023-04-30T08:55:35.172Z,9.18
2023-04-30T08:58:02.568Z,9.27
2023-04-30T09:00:32.562Z,11.45
2023-04-30T09:03:01.371Z,10.15
2023-04-30T09:05:28.303Z,8.05
2023-04-30T09:08:03.114Z,11.43
2023-04-30T09:10:35.237Z,9.93
2023-04-30T09:13:11.900Z,8.30
2023-04-30T09:15:41.757Z,7.88
2023-04-30T09:18:17.674Z,9.48
2023-04-30T09:20:57.788Z,9.30
2023-04-30T09:23:25.366Z,9.95
2023-04-30T09:25:52.272Z,8.10
2023-04-30T09:28:23.588Z,8.45
2023-04-30T09:30:51.539Z,8.13
2023-04-30T09:33:18.417Z,8.02
2023-04-30T09:35:45.229Z,6.88
2023-04-30T09:38:33.057Z,7.88
2023-04-30T09:41:01.604Z,10.82
2023-04-30T09:43:29.606Z,7.63
2023-04-30T09:45:59.185Z,9.20
2023-04-30T09:48:28.226Z,9.73
2023-04-30T09:50:55.361Z,8.07
2023-04-30T09:53:24.215Z,6.18
2023-04-30T09:55:52.005Z,5.05
2023-04-30T09:58:19.967Z,6.95
2023-04-30T10:00:48.402Z,6.50
2023-04-30T10:03:16.568Z,7.50
2023-04-30T10:05:48.903Z,8.55
2023-04-30T10:08:26.602Z,7.05
2023-04-30T10:11:04.495Z,5.10
2023-04-30T10:13:51.485Z,6.72
2023-04-30T10:16:41.781Z,7.28
2023-04-30T10:19:17.812Z,5.90
2023-04-30T10:21:46.483Z,5.28
2023-04-30T10:24:14.987Z,6.75
2023-04-30T10:26:42.349Z,3.80
2023-04-30T10:29:09.962Z,5.35
2023-04-30T10:31:37.746Z,5.72
2023-04-30T10:34:13.401Z,5.00
2023-04-30T10:36:44.859Z,5.78
2023-04-30T10:41:39.688Z,5.80
2023-04-30T10:44:08.407Z,6.85
2023-04-30T10:46:36.491Z,4.45
2023-04-30T10:49:04.156Z,7.90
2023-04-30T10:51:55.017Z,6.95
2023-04-30T10:54:34.374Z,5.57
2023-04-30T10:57:14.510Z,11.80
2023-04-30T10:59:52.634Z,7.45
2023-04-30T11:02:19.947Z,7.70
2023-04-30T11:05:08.735Z,3.63
2023-04-30T11:07:36.206Z,3.88
2023-04-30T11:10:03.256Z,5.57
2023-04-30T11:12:30.119Z,5.70
2023-04-30T11:15:06.582Z,6.43
2023-04-30T11:17:34.074Z,5.00
2023-04-30T11:20:01.918Z,5.78
2023-04-30T11:22:38.112Z,6.00
2023-04-30T11:25:18.820Z,4.60
2023-04-30T11:27:46.230Z,4.03
2023-04-30T11:30:17.116Z,4.75
2023-04-30T11:32:47.688Z,5.35
2023-04-30T11:35:18.376Z,5.50
2023-04-30T11:37:45.182Z,4.13
2023-04-30T11:40:13.558Z,4.30
2023-04-30T11:42:47.130Z,6.38
2023-04-30T11:45:18.057Z,7.75
2023-04-30T11:47:53.956Z,4.80
2023-04-30T11:50:29.227Z,4.18
2023-04-30T11:52:58.590Z,5.05
2023-04-30T11:55:26.618Z,5.57
2023-04-30T11:57:55.954Z,5.72
2023-04-30T12:00:32.130Z,4.13
2023-04-30T12:03:01.425Z,5.85
2023-04-30T12:05:28.480Z,4.30
2023-04-30T12:07:55.935Z,4.47
2023-04-30T12:10:24.821Z,5.45
2023-04-30T12:12:53.225Z,4.72
2023-04-30T12:15:29.027Z,3.65
2023-04-30T12:17:57.560Z,4.03
2023-04-30T12:20:29.208Z,4.10
2023-04-30T12:22:57.015Z,3.75
2023-04-30T12:25:24.472Z,3.65
2023-04-30T12:27:54.503Z,3.88
2023-04-30T12:30:24.953Z,2.88
2023-04-30T12:32:53.465Z,3.10
2023-04-30T12:35:22.141Z,4.25
2023-04-30T12:37:52.093Z,2.90
2023-04-30T12:40:20.550Z,3.58
2023-04-30T12:42:47.923Z,2.42
2023-04-30T12:45:44.570Z,2.92
2023-04-30T12:48:12.004Z,2.70
2023-04-30T12:50:39.384Z,3.28
2023-04-30T12:53:07.671Z,4.20
2023-04-30T12:55:35.254Z,2.47
2023-04-30T12:58:09.316Z,3.10
2023-04-30T13:00:45.008Z,3.95
2023-04-30T13:03:13.063Z,3.08
2023-04-30T13:05:41.839Z,2.90
2023-04-30T13:08:09.553Z,3.67
2023-04-30T13:10:36.387Z,3.80
2023-04-30T13:13:04.362Z,4.97
2023-04-30T13:15:31.224Z,3.60
2023-04-30T13:17:58.127Z,4.20
2023-04-30T13:20:25.228Z,3.80
2023-04-30T13:22:52.508Z,4.25
2023-04-30T13:25:19.869Z,4.35
2023-04-30T13:27:46.615Z,4.05
2023-04-30T13:30:13.422Z,4.03
2023-04-30T13:32:40.332Z,5.75
2023-04-30T13:35:08.382Z,4.18
2023-04-30T13:37:35.836Z,3.95
2023-04-30T13:40:03.960Z,3.53
2023-04-30T13:42:30.682Z,3.20
2023-04-30T13:44:57.671Z,3.35
2023-04-30T13:47:24.465Z,3.10
2023-04-30T13:49:51.322Z,4.78
2023-04-30T13:52:18.092Z,2.38
2023-04-30T13:54:44.877Z,3.22
2023-04-30T13:57:11.667Z,3.17
2023-04-30T13:59:38.697Z,2.38
2023-04-30T14:02:05.557Z,2.22
2023-04-30T14:04:32.362Z,2.83
2023-04-30T14:06:59.197Z,3.10
2023-04-30T14:09:26.873Z,2.70
2023-04-30T14:11:55.941Z,3.05
2023-04-30T14:14:22.731Z,3.13
2023-04-30T14:16:49.714Z,1.85
2023-04-30T14:19:17.303Z,3.70
2023-04-30T14:21:44.008Z,2.13
2023-04-30T14:24:12.744Z,2.05
2023-04-30T14:26:42.884Z,2.80
2023-04-30T14:29:10.089Z,2.35
2023-04-30T14:31:36.856Z,2.03
2023-04-30T14:34:03.674Z,2.03
2023-04-30T14:36:30.651Z,1.55
2023-04-30T14:38:57.440Z,1.60
2023-04-30T14:41:24.198Z,1.45
2023-04-30T14:43:52.663Z,1.40
2023-04-30T14:46:19.713Z,1.40
2023-04-30T14:48:46.594Z,1.60
2023-04-30T14:51:13.327Z,1.88
2023-04-30T14:53:40.026Z,1.73
2023-04-30T14:56:07.250Z,1.83
2023-04-30T14:58:34.056Z,1.58
2023-04-30T15:01:00.882Z,1.48
2023-04-30T15:03:28.027Z,1.77
2023-04-30T15:05:55.728Z,3.53
2023-04-30T15:08:22.679Z,2.60
2023-04-30T15:10:49.384Z,1.50
2023-04-30T15:13:16.501Z,1.40
2023-04-30T15:15:43.465Z,1.20
2023-04-30T15:18:10.657Z,1.52
2023-04-30T15:20:37.544Z,1.80
2023-04-30T15:23:04.279Z,1.23
2023-04-30T15:25:32.300Z,1.60
2023-04-30T15:27:59.633Z,1.60
2023-04-30T15:30:26.438Z,1.92
2023-04-30T15:32:53.167Z,1.27
2023-04-30T15:35:19.984Z,1.90
2023-04-30T15:37:46.853Z,3.08
2023-04-30T15:40:15.461Z,2.42
2023-04-30T15:42:42.717Z,2.60
2023-04-30T15:45:10.508Z,2.60
2023-04-30T15:47:40.470Z,1.65
2023-04-30T15:50:08.130Z,2.67
2023-04-30T15:52:34.986Z,2.15
2023-04-30T15:55:01.717Z,2.45
2023-04-30T15:57:28.496Z,1.83
2023-04-30T15:59:56.419Z,3.70
2023-04-30T16:02:23.596Z,2.78
2023-04-30T16:04:50.447Z,1.90
2023-04-30T16:07:17.509Z,1.85
2023-04-30T16:09:45.974Z,2.47
2023-04-30T16:12:12.738Z,3.25
2023-04-30T16:14:39.979Z,2.58
2023-04-30T16:17:06.742Z,2.65
2023-04-30T16:19:33.466Z,3.35
2023-04-30T16:22:00.732Z,1.90
2023-04-30T16:24:27.846Z,3.28
2023-04-30T16:26:54.775Z,3.88
2023-04-30T16:29:21.536Z,2.47
2023-04-30T16:31:48.450Z,2.47
2023-04-30T16:34:15.214Z,1.60
2023-04-30T16:36:41.987Z,2.40
2023-04-30T16:39:08.757Z,2.70
2023-04-30T16:41:35.680Z,3.95
2023-04-30T16:44:02.559Z,3.58
2023-04-30T16:46:29.752Z,2.00
2023-04-30T16:48:56.586Z,1.58
2023-04-30T16:51:23.412Z,2.47
2023-04-30T16:53:50.328Z,1.95
2023-04-30T16:56:17.124Z,1.73
2023-04-30T16:58:43.866Z,1.50
2023-04-30T17:01:10.952Z,2.53
2023-04-30T17:03:37.980Z,1.58
2023-04-30T17:06:06.450Z,1.85
2023-04-30T17:08:33.172Z,3.63
2023-04-30T17:10:59.938Z,2.00
2023-04-30T17:13:26.737Z,2.65
2023-04-30T17:16:01.463Z,1.98
2023-04-30T17:18:28.883Z,2.17
2023-04-30T17:20:56.361Z,1.85
2023-04-30T17:23:23.223Z,2.05
2023-04-30T17:25:49.966Z,2.25
2023-04-30T17:28:17.228Z,2.30
2023-04-30T17:30:45.104Z,3.10
2023-04-30T17:33:11.867Z,2.67
2023-04-30T17:35:38.638Z,2.10
2023-04-30T17:38:05.485Z,2.65
2023-04-30T17:40:33.162Z,2.30
2023-04-30T17:43:00.504Z,1.60
2023-04-30T17:45:27.311Z,2.65
2023-04-30T17:47:54.133Z,1.65
2023-04-30T17:50:21.239Z,1.67
2023-04-30T17:52:48.160Z,2.63
2023-04-30T17:55:14.966Z,1.40
2023-04-30T17:57:41.763Z,2.42
2023-04-30T18:00:09.005Z,1.83
2023-04-30T18:02:35.935Z,2.05
2023-04-30T18:05:02.963Z,3.75
2023-04-30T18:07:29.745Z,2.80
2023-04-30T18:09:57.016Z,2.28
2023-04-30T18:12:24.228Z,3.13
2023-04-30T18:14:51.015Z,2.72
2023-04-30T18:17:17.802Z,2.10
2023-04-30T18:19:46.351Z,2.97
2023-04-30T18:22:13.190Z,1.98
2023-04-30T18:24:40.241Z,1.52
2023-04-30T18:27:07.566Z,1.92
2023-04-30T18:29:35.398Z,1.52
2023-04-30T18:32:02.335Z,3.50
2023-04-30T18:34:29.303Z,3.33
2023-04-30T18:36:56.547Z,2.42
2023-04-30T18:39:23.326Z,2.35
2023-04-30T18:41:51.022Z,3.47
2023-04-30T18:44:17.772Z,3.17
2023-04-30T18:46:44.537Z,1.95
2023-04-30T18:49:11.457Z,3.00
2023-04-30T18:51:38.183Z,2.17
2023-04-30T18:54:04.943Z,1.40
2023-04-30T18:56:31.797Z,3.08
2023-04-30T18:58:58.618Z,1.95
2023-04-30T19:01:27.432Z,1.92
2023-04-30T19:03:54.592Z,2.40
2023-04-30T19:06:22.124Z,2.92
2023-04-30T19:08:49.699Z,4.32
2023-04-30T19:11:16.599Z,3.88
2023-04-30T19:13:43.355Z,2.72
2023-04-30T19:16:10.121Z,2.47
2023-04-30T19:18:38.605Z,2.42
2023-04-30T19:21:05.904Z,2.58
2023-04-30T19:23:32.633Z,3.00
2023-04-30T19:26:00.135Z,2.67
2023-04-30T19:28:27.260Z,3.53
2023-04-30T19:30:55.015Z,2.30
2023-04-30T19:33:22.847Z,2.95
2023-04-30T19:35:53.219Z,4.05
2023-04-30T19:38:21.528Z,2.47
2023-04-30T19:40:49.867Z,4.82
2023-04-30T19:43:16.723Z,2.70
2023-04-30T19:45:48.104Z,2.38
2023-04-30T19:50:44.962Z,2.08
2023-04-30T19:53:12.719Z,3.60
2023-04-30T19:55:39.560Z,2.80
2023-04-30T19:58:06.858Z,3.60
2023-04-30T20:00:38.377Z,2.80
2023-04-30T20:03:05.492Z,2.35
2023-04-30T20:05:33.537Z,4.13
2023-04-30T20:08:01.285Z,4.13
2023-04-30T20:10:28.043Z,3.05
2023-04-30T20:12:55.631Z,3.55
2023-04-30T20:15:22.851Z,3.53
2023-04-30T20:17:50.914Z,6.03
2023-04-30T20:20:20.141Z,6.93
2023-04-30T20:22:50.209Z,3.90
2023-04-30T20:25:17.429Z,4.20
2023-04-30T20:27:44.417Z,3.15
2023-04-30T20:30:13.210Z,3.90
2023-04-30T20:32:41.128Z,3.75
2023-04-30T20:35:08.579Z,3.30
2023-04-30T20:37:36.584Z,3.17
2023-04-30T20:40:04.025Z,4.88
2023-04-30T20:42:30.906Z,3.35
2023-04-30T20:44:57.708Z,4.28
2023-04-30T20:47:24.432Z,3.00
2023-04-30T20:49:51.362Z,3.38
2023-04-30T20:52:19.028Z,5.72
2023-04-30T20:54:45.918Z,6.10
2023-04-30T20:57:12.838Z,5.38
2023-04-30T20:59:39.621Z,4.15
2023-04-30T21:02:06.534Z,4.75
2023-04-30T21:04:33.312Z,4.90
2023-04-30T21:07:00.146Z,4.93
2023-04-30T21:09:26.874Z,4.05
2023-04-30T21:11:53.662Z,7.45
2023-04-30T21:14:21.257Z,4.35
2023-04-30T21:16:48.372Z,5.05
2023-04-30T21:19:15.176Z,6.68
2023-04-30T21:21:42.053Z,8.10
2023-04-30T21:24:08.859Z,5.90
2023-04-30T21:26:35.572Z,8.15
2023-04-30T21:29:02.890Z,4.53
2023-04-30T21:31:29.747Z,5.15
2023-04-30T21:33:56.603Z,7.18
2023-04-30T21:36:23.605Z,5.32
2023-04-30T21:38:50.362Z,7.85
2023-04-30T21:41:17.890Z,5.85
2023-04-30T21:43:44.676Z,6.10
2023-04-30T21:46:13.410Z,6.63
2023-04-30T21:48:40.502Z,5.65
2023-04-30T21:51:17.469Z,7.55
2023-04-30T21:53:46.092Z,7.03
2023-04-30T21:56:13.347Z,5.40
2023-04-30T21:58:40.098Z,5.65
2023-04-30T22:01:07.262Z,7.65
2023-04-30T22:03:37.130Z,7.15
2023-04-30T22:06:04.157Z,6.38
2023-04-30T22:08:30.918Z,6.78
2023-04-30T22:10:59.018Z,7.00
2023-04-30T22:13:29.141Z,8.10
2023-04-30T22:15:57.239Z,8.45
2023-04-30T22:18:24.701Z,7.93
2023-04-30T22:20:52.274Z,6.05
2023-04-30T22:23:22.626Z,7.15
2023-04-30T22:25:49.628Z,7.38
2023-04-30T22:28:17.979Z,7.72
2023-04-30T22:30:45.266Z,7.93
2023-04-30T22:33:12.245Z,7.50
2023-04-30T22:35:39.125Z,5.78
2023-04-30T22:38:06.939Z,6.72
2023-04-30T22:40:35.008Z,6.35
2023-04-30T22:43:02.293Z,8.43
2023-04-30T22:45:36.836Z,5.93
2023-04-30T22:48:04.385Z,7.55
2023-04-30T22:50:31.884Z,5.90
2023-04-30T22:52:58.824Z,7.03
2023-04-30T22:55:26.830Z,8.15
2023-04-30T22:57:53.942Z,7.53
2023-04-30T23:00:21.221Z,6.70
2023-04-30T23:02:48.048Z,6.47
2023-04-30T23:05:14.880Z,6.28
2023-04-30T23:07:41.985Z,6.85
2023-04-30T23:10:09.023Z,6.82
2023-04-30T23:12:35.869Z,7.30
2023-04-30T23:15:02.669Z,10.98
2023-04-30T23:17:29.398Z,8.27
2023-04-30T23:19:56.515Z,7.25
2023-04-30T23:22:23.494Z,8.45
2023-04-30T23:24:50.233Z,7.82
2023-04-30T23:27:17.532Z,8.57
2023-04-30T23:29:44.548Z,9.48
2023-04-30T23:32:11.595Z,7.82
2023-04-30T23:34:38.364Z,6.22
2023-04-30T23:37:05.130Z,8.38
2023-04-30T23:39:32.448Z,6.32
2023-04-30T23:41:59.205Z,6.82
2023-04-30T23:44:25.883Z,7.47
2023-04-30T23:46:52.729Z,6.90
2023-04-30T23:49:20.550Z,6.22
2023-04-30T23:51:47.272Z,5.93
2023-04-30T23:54:14.003Z,6.82
2023-04-30T23:56:40.733Z,9.15
2023-04-30T23:59:07.633Z,5.88
